Canton, Minnesota
Current Conditions -  °F | °C
As of 4:35 PM on Monday 22 Dec 2014 (Local Time) from KFKA Reporting Station
Light Rain Light Rain  
Wind Chill: 25°   Ceiling: 600
Heat Index: 33°   Visibility: 2.5mi
Dew Point: 32°   Wind: 10mph
Humidity: 96%   Direction: 100°E
Pressure: 29.58"   Gusts: NA
Location:  43.53°N, 91.93°W
Report Text: KFKA 222235Z AUTO 10009KT 2 1/2SM -RA OVC006 01/00 A2958 RMK AO2 P0001 T00050000
Loading
Personal Weather Stations






























Interactive Weather Map New forecast layout! Learn more

10-Day Weather Forecast

Advertisements
Track Severe Weather on mobile